Time;durP1;ratioP1;P1;durP2;ratioP2;P2;SDS_P1;SDS_P2;PMS_P1;PMS_P2;Temp;Humidity;BMP_temperature;BMP_pressure;BME280_temperature;BME280_humidity;BME280_pressure;Samples;Min_cycle;Max_cycle;Signal;HPM_P1;HPM_P2
2024/03/29 01:43:40;;;;;;;;;;;;;;;;;;2566137;23;20390;-88
2024/03/29 01:44:41;;;;;;;11.15;8.15;;;;;;;;;;2578319;23;19915;-88
2024/03/29 01:45:42;;;;;;;;;;;;;;;;;;2579679;22;20467;-88
2024/03/29 01:46:44;;;;;;;11.23;7.90;;;;;;;;;;2579413;22;19919;-89
2024/03/29 01:47:46;;;;;;;8.85;7.85;;;;;;;;;;2578911;22;20066;-88
2024/03/29 01:48:48;;;;;;;9.82;7.57;;;;;;;;;;2579044;22;20031;-88
2024/03/29 01:49:50;;;;;;;9.65;8.27;;;;;;;;;;2578445;22;20044;-88
2024/03/29 01:50:54;;;;;;;11.02;9.27;;;;;;;;;;2578742;22;20035;-87
2024/03/29 01:51:56;;;;;;;11.07;9.13;;;;;;;;;;2578945;22;20035;-88
2024/03/29 01:52:57;;;;;;;10.75;8.63;;;;;;;;;;2578756;22;20028;-88
2024/03/29 01:53:58;;;;;;;;;;;;;;;;;;2579716;22;20066;-88
2024/03/29 01:54:59;;;;;;;12.00;8.82;;;;;;;;;;2579033;23;19920;-90
2024/03/29 01:56:01;;;;;;;;;;;;;;;;;;2579183;22;20103;-89
2024/03/29 01:57:03;;;;;;;10.88;8.77;;;;;;;;;;2579243;22;20590;-90
2024/03/29 01:58:05;;;;;;;12.10;8.32;;;;;;;;;;2578903;22;20462;-89
2024/03/29 01:59:12;;;;;;;12.75;9.30;;;;;;;;;;2581160;22;20022;-88
2024/03/29 02:00:13;;;;;;;12.25;9.02;;;;;;;;;;2581031;22;20472;-88
2024/03/29 02:01:15;;;;;;;11.15;8.85;;;;;;;;;;2580184;22;20090;-89
2024/03/29 02:02:16;;;;;;;12.50;9.20;;;;;;;;;;2581235;22;20078;-89
2024/03/29 02:03:19;;;;;;;;;;;;;;;;;;2581048;22;20389;-88
2024/03/29 02:04:21;;;;;;;11.98;8.95;;;;;;;;;;2578655;22;19943;-88
2024/03/29 02:05:23;;;;;;;13.10;8.95;;;;;;;;;;2578924;22;20024;-89
2024/03/29 02:06:24;;;;;;;11.95;8.63;;;;;;;;;;2579212;22;20034;-89
2024/03/29 02:07:24;;;;;;;;;;;;;;;;;;2579597;22;20087;-88
2024/03/29 02:08:26;;;;;;;11.20;9.03;;;;;;;;;;2579160;23;19919;-88
2024/03/29 02:09:27;;;;;;;12.95;8.15;;;;;;;;;;2579405;22;20476;-87
2024/03/29 02:10:28;;;;;;;;;;;;;;;;;;2579056;22;20024;-88
2024/03/29 02:11:29;;;;;;;10.57;8.50;;;;;;;;;;2578231;23;19925;-87
2024/03/29 02:12:30;;;;;;;11.63;9.30;;;;;;;;;;2578724;22;20081;-87
2024/03/29 02:13:32;;;;;;;;;;;;;;;;;;2580357;22;20020;-87
2024/03/29 02:14:32;;;;;;;11.13;8.70;;;;;;;;;;2580559;23;20375;-87
2024/03/29 02:15:33;;;;;;;;;;;;;;;;;;2581166;22;20020;-88
2024/03/29 02:16:35;;;;;;;12.00;9.23;;;;;;;;;;2580444;22;20199;-88
2024/03/29 02:17:36;;;;;;;11.45;8.98;;;;;;;;;;2580547;22;20062;-88
2024/03/29 02:18:38;;;;;;;;;;;;;;;;;;2581230;22;20626;-88
2024/03/29 02:19:39;;;;;;;11.63;9.00;;;;;;;;;;2580258;22;20341;-88
2024/03/29 02:20:40;;;;;;;12.98;9.45;;;;;;;;;;2581125;22;20103;-87
2024/03/29 02:21:43;;;;;;;;;;;;;;;;;;2581210;22;20027;-87
2024/03/29 02:22:55;;;;;;;10.82;8.82;;;;;;;;;;2580259;22;19919;-88
2024/03/29 02:24:01;;;;;;;12.95;8.77;;;;;;;;;;2581587;22;20020;-89
2024/03/29 02:25:03;;;;;;;14.30;9.52;;;;;;;;;;2580613;22;20402;-86
2024/03/29 02:26:04;;;;;;;13.02;9.80;;;;;;;;;;2581441;22;20059;-89
2024/03/29 02:27:05;;;;;;;;;;;;;;;;;;2581904;22;20362;-89
2024/03/29 02:28:06;;;;;;;12.55;9.05;;;;;;;;;;2580488;22;20459;-88
2024/03/29 02:29:07;;;;;;;;;;;;;;;;;;2581701;22;20086;-89
2024/03/29 02:30:09;;;;;;;14.47;10.10;;;;;;;;;;2581109;22;20690;-89
2024/03/29 02:31:10;;;;;;;10.77;9.18;;;;;;;;;;2580737;22;20112;-89
2024/03/29 02:32:11;;;;;;;;;;;;;;;;;;2581996;22;20347;-88
2024/03/29 02:33:12;;;;;;;12.07;8.95;;;;;;;;;;2580540;23;19919;-88
2024/03/29 02:34:15;;;;;;;;;;;;;;;;;;2581236;22;20028;-89
2024/03/29 02:35:16;;;;;;;13.00;8.77;;;;;;;;;;2581180;23;19920;-89
2024/03/29 02:36:17;;;;;;;;;;;;;;;;;;2582109;22;20518;-89
2024/03/29 02:37:18;;;;;;;10.55;8.27;;;;;;;;;;2580588;22;20018;-89
2024/03/29 02:38:20;;;;;;;;;;;;;;;;;;2581569;22;20024;-88
2024/03/29 02:39:21;;;;;;;;;;;;;;;;;;2581217;22;19931;-87
2024/03/29 02:40:23;;;;;;;12.35;8.60;;;;;;;;;;2580272;22;19946;-87
2024/03/29 02:41:26;;;;;;;12.07;9.23;;;;;;;;;;2580437;22;20055;-87
2024/03/29 02:42:27;;;;;;;10.93;9.30;;;;;;;;;;2580658;22;20031;-87
2024/03/29 02:43:28;;;;;;;12.23;9.50;;;;;;;;;;2579953;22;20024;-87
2024/03/29 02:44:29;;;;;;;;;;;;;;;;;;2581095;22;20026;-88
2024/03/29 02:45:30;;;;;;;12.10;9.10;;;;;;;;;;2579788;23;19955;-86
2024/03/29 02:46:31;;;;;;;11.85;9.93;;;;;;;;;;2580524;22;20020;-87
2024/03/29 02:47:32;;;;;;;;;;;;;;;;;;2581524;22;20043;-89
2024/03/29 02:48:34;;;;;;;11.97;9.67;;;;;;;;;;2580751;23;20316;-88
2024/03/29 02:49:34;;;;;;;10.32;9.15;;;;;;;;;;2580865;22;20028;-87
2024/03/29 02:50:35;;;;;;;;;;;;;;;;;;2581717;22;20349;-88
2024/03/29 02:51:37;;;;;;;13.50;10.27;;;;;;;;;;2581213;23;19915;-87
2024/03/29 02:52:38;;;;;;;13.35;9.88;;;;;;;;;;2580184;22;20028;-88
2024/03/29 02:53:38;;;;;;;;;;;;;;;;;;2581691;22;20349;-88
2024/03/29 02:54:41;;;;;;;11.47;9.47;;;;;;;;;;2580946;23;19915;-88
2024/03/29 02:55:43;;;;;;;13.70;9.60;;;;;;;;;;2580378;22;20069;-88
2024/03/29 02:56:43;;;;;;;10.88;9.27;;;;;;;;;;2580633;22;20504;-88
2024/03/29 02:57:44;;;;;;;;;;;;;;;;;;2581956;22;20026;-88
2024/03/29 02:58:46;;;;;;;11.47;9.30;;;;;;;;;;2580405;22;19963;-88
2024/03/29 02:59:47;;;;;;;13.95;9.38;;;;;;;;;;2581290;22;20099;-87
2024/03/29 03:00:47;;;;;;;;;;;;;;;;;;2581676;22;20339;-87
2024/03/29 03:01:48;;;;;;;13.33;8.93;;;;;;;;;;2580081;22;19919;-88
2024/03/29 03:02:50;;;;;;;;;;;;;;;;;;2581488;22;20058;-88
2024/03/29 03:03:50;;;;;;;11.75;8.43;;;;;;;;;;2580916;23;20245;-88
2024/03/29 03:04:51;;;;;;;;;;;;;;;;;;2581296;22;20135;-89
2024/03/29 03:05:54;;;;;;;14.10;9.20;;;;;;;;;;2581277;23;19911;-88
2024/03/29 03:10:55;;;;;;;11.00;9.35;;;;;;;;;;2580137;22;20055;-89
2024/03/29 03:11:01;;;;;;;14.38;9.63;;;;;;;;;;2580415;22;20048;-89
2024/03/29 03:12:03;;;;;;;14.13;10.15;;;;;;;;;;2580715;22;20457;-90
2024/03/29 03:13:04;;;;;;;12.18;9.98;;;;;;;;;;2580343;22;20357;-88
2024/03/29 03:14:05;;;;;;;;;;;;;;;;;;2581706;22;20032;-88
2024/03/29 03:15:08;;;;;;;12.40;9.73;;;;;;;;;;2580504;23;19927;-90
2024/03/29 03:16:09;;;;;;;14.55;11.27;;;;;;;;;;2580848;22;20028;-89
2024/03/29 03:17:10;;;;;;;;;;;;;;;;;;2581925;22;20038;-89
2024/03/29 03:18:11;;;;;;;;;;;;;;;;;;2581677;23;20254;-88
2024/03/29 03:19:12;;;;;;;10.30;8.83;;;;;;;;;;2579915;22;20021;-89
2024/03/29 03:20:13;;;;;;;;;;;;;;;;;;2581373;22;20020;-88
2024/03/29 03:21:15;;;;;;;12.10;9.80;;;;;;;;;;2580767;23;20674;-88
2024/03/29 03:22:16;;;;;;;13.35;9.65;;;;;;;;;;2580086;22;20410;-88
2024/03/29 03:23:16;;;;;;;;;;;;;;;;;;2580910;22;20058;-88
2024/03/29 03:24:17;;;;;;;11.27;9.90;;;;;;;;;;2580759;22;19915;-88
2024/03/29 03:25:19;;;;;;;;;;;;;;;;;;2580442;22;20035;-88
2024/03/29 03:26:21;;;;;;;;;;;;;;;;;;2581405;23;20522;-88
2024/03/29 03:27:23;;;;;;;12.80;9.15;;;;;;;;;;2581243;23;19926;-88
2024/03/29 03:28:25;;;;;;;12.63;9.88;;;;;;;;;;2580423;22;20020;-90
2024/03/29 03:29:26;;;;;;;12.13;9.82;;;;;;;;;;2581117;22;20028;-89
2024/03/29 03:30:26;;;;;;;;;;;;;;;;;;2581586;22;20056;-88
2024/03/29 03:31:27;;;;;;;12.47;10.37;;;;;;;;;;2580888;22;19923;-90
2024/03/29 03:32:29;;;;;;;;;;;;;;;;;;2581453;22;20397;-90
2024/03/29 03:33:29;;;;;;;11.77;10.07;;;;;;;;;;2581036;23;20030;-89
2024/03/29 03:34:30;;;;;;;12.40;9.98;;;;;;;;;;2580552;22;20023;-90
2024/03/29 03:35:32;;;;;;;13.48;10.65;;;;;;;;;;2580986;22;20028;-90
2024/03/29 03:36:33;;;;;;;13.52;10.60;;;;;;;;;;2580702;22;20032;-89
2024/03/29 03:37:34;;;;;;;;;;;;;;;;;;2580898;22;20024;-89
2024/03/29 03:38:37;;;;;;;12.90;10.10;;;;;;;;;;2580140;22;20053;-89
2024/03/29 03:39:38;;;;;;;12.48;10.25;;;;;;;;;;2580682;22;20028;-89
2024/03/29 03:40:39;;;;;;;;;;;;;;;;;;2581156;22;20086;-90
2024/03/29 03:41:41;;;;;;;13.60;10.60;;;;;;;;;;2580593;23;19957;-90
2024/03/29 03:42:43;;;;;;;13.55;10.10;;;;;;;;;;2580896;22;20024;-89
2024/03/29 03:43:44;;;;;;;15.77;10.98;;;;;;;;;;2580187;22;20032;-90
2024/03/29 03:44:44;;;;;;;;;;;;;;;;;;2581320;22;20719;-89
2024/03/29 03:45:45;;;;;;;14.20;11.13;;;;;;;;;;2581355;22;20534;-90
2024/03/29 03:46:46;;;;;;;;;;;;;;;;;;2580697;22;20032;-89
2024/03/29 03:47:48;;;;;;;13.10;10.40;;;;;;;;;;2580628;23;19915;-89
2024/03/29 03:48:48;;;;;;;13.45;10.45;;;;;;;;;;2581002;22;20031;-89
2024/03/29 03:49:50;;;;;;;;;;;;;;;;;;2581221;22;20024;-88
2024/03/29 03:50:51;;;;;;;13.52;10.45;;;;;;;;;;2580552;23;20364;-88
2024/03/29 03:51:52;;;;;;;;;;;;;;;;;;2581462;22;20234;-88
2024/03/29 03:52:52;;;;;;;13.43;10.77;;;;;;;;;;2580225;22;19927;-89
2024/03/29 03:53:54;;;;;;;;;;;;;;;;;;2581255;22;20111;-88
2024/03/29 03:54:55;;;;;;;13.50;10.75;;;;;;;;;;2580754;23;19973;-88
2024/03/29 03:55:55;;;;;;;;;;;;;;;;;;2581310;22;20028;-89
2024/03/29 03:56:58;;;;;;;11.73;10.07;;;;;;;;;;2581298;23;19973;-88
2024/03/29 03:57:59;;;;;;;12.77;10.55;;;;;;;;;;2581477;22;20031;-89
2024/03/29 03:59:00;;;;;;;13.90;10.40;;;;;;;;;;2580658;22;20081;-88
2024/03/29 04:00:02;;;;;;;;;;;;;;;;;;2582508;22;20500;-89
2024/03/29 04:01:04;;;;;;;12.20;10.35;;;;;;;;;;2580623;22;19942;-88
2024/03/29 04:02:05;;;;;;;13.95;10.90;;;;;;;;;;2581279;22;20020;-90
2024/03/29 04:03:06;;;;;;;13.25;10.10;;;;;;;;;;2581692;22;20453;-89
2024/03/29 04:04:07;;;;;;;;;;;;;;;;;;2581583;22;20020;-89
2024/03/29 04:05:08;;;;;;;13.17;9.83;;;;;;;;;;2582072;23;19926;-89
2024/03/29 04:06:10;;;;;;;;;;;;;;;;;;2582354;22;20031;-89
2024/03/29 04:07:10;;;;;;;;;;;;;;;;;;2581751;22;19941;-89
2024/03/29 04:08:11;;;;;;;13.20;9.57;;;;;;;;;;2581932;23;20380;-89
2024/03/29 04:09:15;;;;;;;12.98;9.90;;;;;;;;;;2581827;22;20103;-89
2024/03/29 04:10:16;;;;;;;13.32;9.98;;;;;;;;;;2581042;22;20380;-90
2024/03/29 04:11:17;;;;;;;;;;;;;;;;;;2582168;22;20028;-89
2024/03/29 04:12:19;;;;;;;11.80;9.30;;;;;;;;;;2581468;22;20042;-89
2024/03/29 04:13:21;;;;;;;13.23;10.18;;;;;;;;;;2580919;22;20034;-89
2024/03/29 04:14:21;;;;;;;13.07;10.32;;;;;;;;;;2581123;22;20020;-89
2024/03/29 04:15:22;;;;;;;;;;;;;;;;;;2581741;22;20414;-89
2024/03/29 04:16:24;;;;;;;11.73;9.53;;;;;;;;;;2580517;22;19942;-89
2024/03/29 04:17:25;;;;;;;11.77;9.70;;;;;;;;;;2581647;22;20545;-89
2024/03/29 04:18:25;;;;;;;;;;;;;;;;;;2582096;22;20024;-89
2024/03/29 04:19:26;;;;;;;11.73;10.03;;;;;;;;;;2581133;22;19923;-90
2024/03/29 04:20:28;;;;;;;;;;;;;;;;;;2582139;22;20523;-90
2024/03/29 04:21:28;;;;;;;9.93;8.70;;;;;;;;;;2581656;23;19916;-89
2024/03/29 04:22:29;;;;;;;;;;;;;;;;;;2581973;22;20126;-89
2024/03/29 04:23:31;;;;;;;10.97;8.73;;;;;;;;;;2580950;23;19922;-89
2024/03/29 04:24:32;;;;;;;12.57;9.10;;;;;;;;;;2581529;22;20028;-89
2024/03/29 04:25:32;;;;;;;;;;;;;;;;;;2582067;22;20020;-89
2024/03/29 04:26:33;;;;;;;11.43;8.97;;;;;;;;;;2581063;23;19930;-89
2024/03/29 04:27:36;;;;;;;11.73;8.82;;;;;;;;;;2581877;22;20086;-90
2024/03/29 04:28:37;;;;;;;12.60;9.88;;;;;;;;;;2580768;22;20024;-88
2024/03/29 04:29:38;;;;;;;;;;;;;;;;;;2582054;22;20556;-89
2024/03/29 04:30:38;;;;;;;11.10;8.93;;;;;;;;;;2581452;23;20205;-88
2024/03/29 04:31:40;;;;;;;;;;;;;;;;;;2581460;22;20028;-88
2024/03/29 04:32:41;;;;;;;10.93;9.43;;;;;;;;;;2581476;23;20314;-89
2024/03/29 04:33:41;;;;;;;;;;;;;;;;;;2582016;22;20030;-88
2024/03/29 04:34:42;;;;;;;10.63;8.37;;;;;;;;;;2580654;22;19915;-89
2024/03/29 04:35:51;;;;;;;;;;;;;;;;;;2581957;22;20028;-88
2024/03/29 04:36:53;;;;;;;10.05;8.55;;;;;;;;;;2581067;23;19919;-89
2024/03/29 04:37:53;;;;;;;10.60;9.40;;;;;;;;;;2580866;22;20032;-88
2024/03/29 04:38:55;;;;;;;;;;;;;;;;;;2581947;22;20052;-88
2024/03/29 04:39:56;;;;;;;12.18;8.93;;;;;;;;;;2581665;23;19925;-89
2024/03/29 04:40:58;;;;;;;14.48;9.93;;;;;;;;;;2580685;22;20035;-90
2024/03/29 04:42:00;;;;;;;13.60;9.98;;;;;;;;;;2581528;22;20024;-90
2024/03/29 04:43:02;;;;;;;13.50;9.73;;;;;;;;;;2581457;22;20123;-89
2024/03/29 04:44:04;;;;;;;11.20;9.95;;;;;;;;;;2581004;22;20016;-80
2024/03/29 04:45:07;;;;;;;15.13;9.70;;;;;;;;;;2580043;22;20066;-81
2024/03/29 04:46:09;;;;;;;11.32;9.40;;;;;;;;;;2579541;22;20028;-82
2024/03/29 04:47:11;;;;;;;12.15;9.02;;;;;;;;;;2580518;22;20019;-81
2024/03/29 04:48:12;;;;;;;14.27;10.57;;;;;;;;;;2580536;22;20024;-81
2024/03/29 04:49:16;;;;;;;;;;;;;;;;;;2580315;22;20035;-79
2024/03/29 04:50:17;;;;;;;12.95;8.93;;;;;;;;;;2580358;23;20245;-78
2024/03/29 04:51:19;;;;;;;;;;;;;;;;;;2580926;22;20027;-78
2024/03/29 04:52:20;;;;;;;;;;;;;;;;;;2580138;22;20334;-78
2024/03/29 04:53:20;;;;;;;12.88;8.60;;;;;;;;;;2580460;23;20238;-80
2024/03/29 04:54:22;;;;;;;10.38;8.95;;;;;;;;;;2580701;22;20077;-80
2024/03/29 04:55:23;;;;;;;10.07;8.75;;;;;;;;;;2580216;22;20406;-81
2024/03/29 04:56:25;;;;;;;;;;;;;;;;;;2581016;23;20024;-81
2024/03/29 04:57:25;;;;;;;11.50;8.82;;;;;;;;;;2580497;23;19915;-80
2024/03/29 04:58:28;;;;;;;;;;;;;;;;;;2580759;22;20089;-81
2024/03/29 04:59:30;;;;;;;12.77;9.38;;;;;;;;;;2580145;22;20218;-80
2024/03/29 05:00:30;;;;;;;14.93;10.20;;;;;;;;;;2580302;22;20565;-81
2024/03/29 05:01:31;;;;;;;;;;;;;;;;;;2580549;22;20024;-79
2024/03/29 05:02:33;;;;;;;12.17;9.27;;;;;;;;;;2580241;23;20337;-79
2024/03/29 05:03:35;;;;;;;13.45;8.93;;;;;;;;;;2580560;22;20028;-80
2024/03/29 05:04:35;;;;;;;12.27;9.38;;;;;;;;;;2579445;22;20059;-81
2024/03/29 05:05:37;;;;;;;;;;;;;;;;;;2581436;22;20071;-81
2024/03/29 05:06:38;;;;;;;10.88;9.05;;;;;;;;;;2580331;23;19965;-79
2024/03/29 05:07:39;;;;;;;;;;;;;;;;;;2580048;22;20020;-79
2024/03/29 05:08:40;;;;;;;9.52;7.93;;;;;;;;;;2580253;22;19939;-79
2024/03/29 05:09:41;;;;;;;;;;;;;;;;;;2581076;22;20016;-79
2024/03/29 05:10:43;;;;;;;10.63;8.73;;;;;;;;;;2579884;22;20273;-78
2024/03/29 05:11:44;;;;;;;11.18;8.60;;;;;;;;;;2580554;22;20101;-79
2024/03/29 05:12:45;;;;;;;;;;;;;;;;;;2580761;22;20150;-79
2024/03/29 05:13:48;;;;;;;11.98;8.85;;;;;;;;;;2579814;22;19942;-79
2024/03/29 05:14:50;;;;;;;11.50;8.77;;;;;;;;;;2580421;22;20048;-79
2024/03/29 05:15:51;;;;;;;11.88;9.23;;;;;;;;;;2579770;22;20346;-79
2024/03/29 05:16:52;;;;;;;;;;;;;;;;;;2580412;22;20030;-79
2024/03/29 05:17:53;;;;;;;14.13;9.20;;;;;;;;;;2580379;23;19920;-80
2024/03/29 05:18:54;;;;;;;;;;;;;;;;;;2580802;22;20028;-80
2024/03/29 05:19:55;;;;;;;13.70;9.37;;;;;;;;;;2579501;22;19915;-81
2024/03/29 05:20:56;;;;;;;10.98;8.65;;;;;;;;;;2580310;22;20020;-79
2024/03/29 05:21:57;;;;;;;;;;;;;;;;;;2580900;22;20035;-78
2024/03/29 05:22:59;;;;;;;13.30;8.73;;;;;;;;;;2579280;22;19927;-78
2024/03/29 05:24:00;;;;;;;10.43;8.48;;;;;;;;;;2580409;22;20063;-81
2024/03/29 05:25:01;;;;;;;;;;;;;;;;;;2581009;22;20131;-81
2024/03/29 05:26:02;;;;;;;11.45;9.10;;;;;;;;;;2579897;22;19920;-79
2024/03/29 05:27:04;;;;;;;;;;;;;;;;;;2581151;22;20107;-79
2024/03/29 05:28:07;;;;;;;11.73;8.80;;;;;;;;;;2579208;22;19950;-81
2024/03/29 05:29:10;;;;;;;10.88;8.98;;;;;;;;;;2580556;22;20046;-80
2024/03/29 05:30:13;;;;;;;10.85;8.95;;;;;;;;;;2580747;22;20028;-78
2024/03/29 05:31:15;;;;;;;11.70;8.80;;;;;;;;;;2579229;22;20098;-81
2024/03/29 05:32:16;;;;;;;11.05;9.00;;;;;;;;;;2579908;22;20104;-81
2024/03/29 05:33:18;;;;;;;;;;;;;;;;;;2581071;22;20031;-78
2024/03/29 05:34:18;;;;;;;11.68;8.30;;;;;;;;;;2579326;22;20342;-81
2024/03/29 05:35:20;;;;;;;;;;;;;;;;;;2580627;22;20020;-79
2024/03/29 05:36:21;;;;;;;9.70;8.13;;;;;;;;;;2580488;22;19916;-79
2024/03/29 05:37:22;;;;;;;;;;;;;;;;;;2580375;22;20028;-79
2024/03/29 05:38:24;;;;;;;11.18;8.32;;;;;;;;;;2579975;23;20342;-79
2024/03/29 05:39:25;;;;;;;10.13;8.05;;;;;;;;;;2580627;22;20093;-80
2024/03/29 05:40:27;;;;;;;;;;;;;;;;;;2580529;22;20488;-79
2024/03/29 05:41:28;;;;;;;9.90;8.10;;;;;;;;;;2580334;23;19919;-81
2024/03/29 05:42:30;;;;;;;;;;;;;;;;;;2581106;22;20077;-79
2024/03/29 05:43:31;;;;;;;12.05;8.82;;;;;;;;;;2579678;22;19968;-78
2024/03/29 05:44:35;;;;;;;13.98;8.43;;;;;;;;;;2580562;22;20035;-81
2024/03/29 05:45:36;;;;;;;11.80;8.38;;;;;;;;;;2579318;22;20648;-79
2024/03/29 05:46:39;;;;;;;;;;;;;;;;;;2580220;22;20145;-79
2024/03/29 05:47:39;;;;;;;10.32;8.10;;;;;;;;;;2580665;22;19973;-82
2024/03/29 05:48:41;;;;;;;;;;;;;;;;;;2580544;22;20024;-79
2024/03/29 05:49:42;;;;;;;12.15;8.68;;;;;;;;;;2579730;22;19983;-81
2024/03/29 05:50:42;;;;;;;;;;;;;;;;;;2580622;22;20458;-79
2024/03/29 05:51:44;;;;;;;10.30;8.67;;;;;;;;;;2580083;23;20269;-80
2024/03/29 05:52:45;;;;;;;13.30;9.18;;;;;;;;;;2579694;22;20020;-80
2024/03/29 05:53:47;;;;;;;;;;;;;;;;;;2581163;22;20488;-80
2024/03/29 05:54:47;;;;;;;12.65;9.45;;;;;;;;;;2580911;23;19948;-90
2024/03/29 05:55:48;;;;;;;;;;;;;;;;;;2581856;22;20032;-89
2024/03/29 05:56:50;;;;;;;12.70;9.30;;;;;;;;;;2581168;23;19915;-89
2024/03/29 05:57:51;;;;;;;14.50;10.40;;;;;;;;;;2580903;22;20039;-88
2024/03/29 05:58:51;;;;;;;;;;;;;;;;;;2581318;22;20555;-89
2024/03/29 05:59:54;;;;;;;10.50;9.40;;;;;;;;;;2581106;23;19998;-88
2024/03/29 06:00:55;;;;;;;14.57;11.18;;;;;;;;;;2580603;22;20039;-88
2024/03/29 06:01:57;;;;;;;;;;;;;;;;;;2581564;22;20055;-87
2024/03/29 06:02:57;;;;;;;17.60;10.90;;;;;;;;;;2581356;23;20301;-88
2024/03/29 06:04:04;;;;;;;;;;;;;;;;;;2582209;22;20035;-88
2024/03/29 06:05:06;;;;;;;14.70;12.35;;;;;;;;;;2581107;23;19919;-89
2024/03/29 06:06:10;;;;;;;15.13;12.00;;;;;;;;;;2581462;22;20030;-89
2024/03/29 06:07:11;;;;;;;16.13;13.20;;;;;;;;;;2581117;22;20055;-88
2024/03/29 06:08:12;;;;;;;;;;;;;;;;;;2582072;22;20039;-88
2024/03/29 06:09:13;;;;;;;17.63;12.82;;;;;;;;;;2580698;23;19919;-89
2024/03/29 06:10:14;;;;;;;17.05;13.73;;;;;;;;;;2582577;22;20089;-90
2024/03/29 06:11:16;;;;;;;17.40;14.63;;;;;;;;;;2582093;22;20023;-88
2024/03/29 06:12:17;;;;;;;17.40;14.02;;;;;;;;;;2582432;22;20076;-87
2024/03/29 06:13:29;;;;;;;;;;;;;;;;;;2582562;22;20020;-88
2024/03/29 06:17:25;;;;;;;18.17;15.13;;;;;;;;;;2579837;22;20513;-88
2024/03/29 06:18:27;;;;;;;20.77;15.73;;;;;;;;;;2579812;22;20411;-88
2024/03/29 06:19:27;;;;;;;18.50;15.25;;;;;;;;;;2579919;22;20550;-89
2024/03/29 06:20:29;;;;;;;;;;;;;;;;;;2581378;22;20059;-89
2024/03/29 06:21:38;;;;;;;19.42;15.23;;;;;;;;;;2580644;22;19923;-89
2024/03/29 06:22:40;;;;;;;18.83;15.57;;;;;;;;;;2580273;22;20055;-89
2024/03/29 06:23:40;;;;;;;21.33;17.42;;;;;;;;;;2580381;22;20023;-89
2024/03/29 06:24:44;;;;;;;;;;;;;;;;;;2581678;22;20016;-89
2024/03/29 06:25:45;;;;;;;22.08;17.50;;;;;;;;;;2579873;22;19923;-89
2024/03/29 06:26:47;;;;;;;;;;;;;;;;;;2581385;22;20024;-89
2024/03/29 06:27:47;;;;;;;21.60;17.00;;;;;;;;;;2581303;23;20348;-89
2024/03/29 06:28:49;;;;;;;;;;;;;;;;;;2582464;22;20035;-88
2024/03/29 06:29:50;;;;;;;20.73;16.48;;;;;;;;;;2582765;23;19927;-88
2024/03/29 06:30:54;;;;;;;22.23;17.88;;;;;;;;;;2582561;22;20488;-88
2024/03/29 06:31:54;;;;;;;21.73;17.20;;;;;;;;;;2582213;22;20032;-89
2024/03/29 06:32:56;;;;;;;;;;;;;;;;;;2582254;22;20095;-89
2024/03/29 06:33:58;;;;;;;24.55;17.90;;;;;;;;;;2581313;23;19923;-88
2024/03/29 06:35:00;;;;;;;23.38;18.05;;;;;;;;;;2580917;22;20131;-91
2024/03/29 06:36:00;;;;;;;24.42;19.00;;;;;;;;;;2580971;22;20020;-89
2024/03/29 06:37:02;;;;;;;;;;;;;;;;;;2581886;22;20474;-89
2024/03/29 06:38:03;;;;;;;24.15;19.45;;;;;;;;;;2580846;23;19927;-92
2024/03/29 06:39:05;;;;;;;23.63;19.77;;;;;;;;;;2582115;22;20056;-92
2024/03/29 06:40:08;;;;;;;26.60;20.75;;;;;;;;;;2581523;22;20076;-92
2024/03/29 06:41:10;;;;;;;27.58;20.40;;;;;;;;;;2582357;22;20030;-92
2024/03/29 06:42:10;;;;;;;26.38;20.55;;;;;;;;;;2581605;22;20557;-92
2024/03/29 06:43:12;;;;;;;;;;;;;;;;;;2582007;22;20024;-93
2024/03/29 06:44:13;;;;;;;25.83;19.15;;;;;;;;;;2581868;22;19919;-92
2024/03/29 06:45:14;;;;;;;;;;;;;;;;;;2582542;22;20361;-92
2024/03/29 06:46:16;;;;;;;23.10;18.17;;;;;;;;;;2581745;22;20064;-93
2024/03/29 06:47:18;;;;;;;25.42;19.73;;;;;;;;;;2581679;23;20023;-93
2024/03/29 06:48:19;;;;;;;30.27;20.23;;;;;;;;;;2580626;22;20095;-92
2024/03/29 06:49:21;;;;;;;;;;;;;;;;;;2581153;22;20042;-92
2024/03/29 06:50:22;;;;;;;26.08;20.65;;;;;;;;;;2581299;23;19976;-92
2024/03/29 06:51:23;;;;;;;;;;;;;;;;;;2581813;22;20078;-89
2024/03/29 06:52:24;;;;;;;24.40;19.25;;;;;;;;;;2580587;22;19958;-93
2024/03/29 06:53:25;;;;;;;;;;;;;;;;;;2581932;22;20027;-91
2024/03/29 06:54:26;;;;;;;28.55;22.75;;;;;;;;;;2581464;23;19916;-92
2024/03/29 06:55:27;;;;;;;;;;;;;;;;;;2581501;22;20047;-93
2024/03/29 06:56:30;;;;;;;;;;;;;;;;;;2581736;23;19923;-91
2024/03/29 06:57:31;;;;;;;;;;;;;;;;;;2581004;23;19919;-91
2024/03/29 06:58:33;;;;;;;;;;;;;;;;;;2581336;22;19938;-92
2024/03/29 06:59:34;;;;;;;33.63;23.83;;;;;;;;;;2581669;23;19942;-91
2024/03/29 07:00:35;;;;;;;;;;;;;;;;;;2581647;22;20028;-91
2024/03/29 07:01:37;;;;;;;31.92;24.10;;;;;;;;;;2581054;22;19923;-90
2024/03/29 07:02:39;;;;;;;34.88;25.92;;;;;;;;;;2580926;23;20047;-91
2024/03/29 07:03:40;;;;;;;34.03;25.55;;;;;;;;;;2580967;22;20048;-90
2024/03/29 07:04:41;;;;;;;;;;;;;;;;;;2581528;22;20035;-90
2024/03/29 07:05:42;;;;;;;32.47;24.80;;;;;;;;;;2580702;22;20356;-90
2024/03/29 07:06:47;;;;;;;;;;;;;;;;;;2581942;22;20017;-91
2024/03/29 07:07:48;;;;;;;33.25;25.48;;;;;;;;;;2581208;22;19943;-92
2024/03/29 07:08:49;;;;;;;;;;;;;;;;;;2582141;22;20414;-91
2024/03/29 07:09:50;;;;;;;33.15;23.45;;;;;;;;;;2580747;23;20040;-91
2024/03/29 07:10:58;;;;;;;;;;;;;;;;;;2582060;22;20028;-91
2024/03/29 07:11:59;;;;;;;34.15;25.15;;;;;;;;;;2581611;22;19916;-91
2024/03/29 07:13:00;;;;;;;;;;;;;;;;;;2582357;22;20127;-91
2024/03/29 07:14:01;;;;;;;35.15;24.85;;;;;;;;;;2580734;22;20433;-91
2024/03/29 07:15:03;;;;;;;;;;;;;;;;;;2582560;22;20024;-90
2024/03/29 07:16:03;;;;;;;;;;;;;;;;;;2582572;22;20010;-90
2024/03/29 07:17:07;;;;;;;34.13;25.15;;;;;;;;;;2582255;23;20280;-91
2024/03/29 07:18:07;;;;;;;34.22;25.50;;;;;;;;;;2582560;22;20095;-92
2024/03/29 07:19:09;;;;;;;;;;;;;;;;;;2582005;22;20139;-89
2024/03/29 07:20:11;;;;;;;35.30;24.88;;;;;;;;;;2582160;23;19919;-90
2024/03/29 07:21:13;;;;;;;35.00;27.27;;;;;;;;;;2582193;22;20074;-91
2024/03/29 07:22:13;;;;;;;35.35;27.10;;;;;;;;;;2581859;22;20071;-90
2024/03/29 07:23:15;;;;;;;;;;;;;;;;;;2582842;22;20051;-91
2024/03/29 07:24:16;;;;;;;35.03;26.13;;;;;;;;;;2582353;23;19915;-91
2024/03/29 07:25:17;;;;;;;;;;;;;;;;;;2582018;22;20028;-91
2024/03/29 07:26:18;;;;;;;37.55;25.88;;;;;;;;;;2581859;23;19919;-91
2024/03/29 07:27:20;;;;;;;38.67;28.67;;;;;;;;;;2582228;22;20024;-90
2024/03/29 07:28:21;;;;;;;36.83;28.33;;;;;;;;;;2581904;22;20027;-91
2024/03/29 07:29:22;;;;;;;;;;;;;;;;;;2583192;22;20047;-91
2024/03/29 07:30:23;;;;;;;38.28;27.58;;;;;;;;;;2582821;22;19919;-90
2024/03/29 07:31:25;;;;;;;;;;;;;;;;;;2583031;22;20024;-90
2024/03/29 07:32:27;;;;;;;40.17;28.88;;;;;;;;;;2583134;23;19986;-90
2024/03/29 07:33:29;;;;;;;41.05;29.95;;;;;;;;;;2582580;22;20016;-90
2024/03/29 07:34:30;;;;;;;42.03;29.05;;;;;;;;;;2581987;22;20087;-91
2024/03/29 07:35:31;;;;;;;;;;;;;;;;;;2583815;22;20035;-90
2024/03/29 07:36:35;;;;;;;37.13;28.13;;;;;;;;;;2582496;23;20306;-92
2024/03/29 07:37:37;;;;;;;38.63;29.13;;;;;;;;;;2582308;22;20024;-90
2024/03/29 07:38:38;;;;;;;38.28;28.30;;;;;;;;;;2582910;22;20028;-90
2024/03/29 07:39:39;;;;;;;;;;;;;;;;;;2583702;22;20046;-90
2024/03/29 07:40:40;;;;;;;39.95;28.63;;;;;;;;;;2582087;22;19921;-90
2024/03/29 07:41:41;;;;;;;39.67;30.20;;;;;;;;;;2582754;22;20020;-91
2024/03/29 07:42:43;;;;;;;39.92;29.50;;;;;;;;;;2583401;22;20094;-92
2024/03/29 07:43:52;;;;;;;39.60;30.13;;;;;;;;;;2582627;22;20024;-92
2024/03/29 07:44:54;;;;;;;39.22;28.50;;;;;;;;;;2583238;22;20102;-91
2024/03/29 07:45:55;;;;;;;39.25;29.75;;;;;;;;;;2583251;22;20032;-92
2024/03/29 07:46:55;;;;;;;;;;;;;;;;;;2583372;22;20024;-92
2024/03/29 07:47:58;;;;;;;40.57;29.33;;;;;;;;;;2583079;23;20325;-91
2024/03/29 07:48:59;;;;;;;38.25;27.80;;;;;;;;;;2582782;22;20099;-94
2024/03/29 07:50:01;;;;;;;;;;;;;;;;;;2582943;22;20031;-92
2024/03/29 07:51:02;;;;;;;39.10;27.35;;;;;;;;;;2583708;23;19920;-92
2024/03/29 07:52:05;;;;;;;;;;;;;;;;;;2583579;22;20059;-92
2024/03/29 07:53:06;;;;;;;38.60;27.65;;;;;;;;;;2583250;22;19919;-92
2024/03/29 07:54:07;;;;;;;;;;;;;;;;;;2583822;22;20052;-94
2024/03/29 07:55:10;;;;;;;37.95;26.58;;;;;;;;;;2582982;22;19930;-93
2024/03/29 07:56:12;;;;;;;37.40;27.67;;;;;;;;;;2583710;22;20024;-94
2024/03/29 07:57:14;;;;;;;36.72;27.52;;;;;;;;;;2583532;22;20103;-95
2024/03/29 07:58:16;;;;;;;37.80;28.90;;;;;;;;;;2583138;22;20028;-96
2024/03/29 07:59:19;;;;;;;37.70;28.60;;;;;;;;;;2583747;22;20470;-94
2024/03/29 08:00:22;;;;;;;40.10;29.73;;;;;;;;;;2583969;22;20024;-96
2024/03/29 08:01:23;;;;;;;34.53;27.42;;;;;;;;;;2582480;22;20070;-94
2024/03/29 08:02:24;;;;;;;40.97;30.20;;;;;;;;;;2584000;22;20024;-95
2024/03/29 08:03:27;;;;;;;;;;;;;;;;;;2584247;22;20351;-96
2024/03/29 08:04:28;;;;;;;38.08;27.48;;;;;;;;;;2583220;22;19919;-95
2024/03/29 08:05:29;;;;;;;;;;;;;;;;;;2584332;22;20027;-94
2024/03/29 08:06:30;;;;;;;37.08;27.25;;;;;;;;;;2584246;22;19998;-96
2024/03/29 08:07:31;;;;;;;;;;;;;;;;;;2583775;22;20035;-96
2024/03/29 08:08:33;;;;;;;38.17;28.48;;;;;;;;;;2584087;23;19911;-96